createdAt,value
2019-05-22T00:02:51.444Z,15.88
2019-05-22T00:07:54.716Z,15.03
2019-05-22T00:12:58.326Z,15.80
2019-05-22T00:18:02.422Z,15.13
2019-05-22T00:23:08.091Z,14.73
2019-05-22T00:28:10.680Z,15.43
2019-05-22T00:33:13.744Z,14.53
2019-05-22T00:38:17.833Z,16.17
2019-05-22T00:43:29.714Z,15.35
2019-05-22T00:48:31.600Z,15.65
2019-05-22T00:53:55.751Z,15.65
2019-05-22T00:59:01.985Z,15.72
2019-05-22T01:04:04.937Z,14.98
2019-05-22T01:09:08.143Z,15.30
2019-05-22T01:14:12.204Z,14.75
2019-05-22T01:19:15.415Z,15.08
2019-05-22T01:24:17.159Z,14.93
2019-05-22T01:29:19.548Z,16.23
2019-05-22T01:34:25.043Z,15.98
2019-05-22T01:39:44.439Z,15.55
2019-05-22T01:44:59.808Z,16.62
2019-05-22T01:49:51.619Z,16.52
2019-05-22T01:54:54.701Z,16.37
2019-05-22T01:59:56.408Z,15.63
2019-05-22T02:04:59.935Z,16.45
2019-05-22T02:10:02.106Z,16.10
2019-05-22T02:15:04.355Z,16.48
2019-05-22T02:20:09.112Z,15.38
2019-05-22T02:25:13.341Z,14.93
2019-05-22T02:30:17.528Z,14.87
2019-05-22T02:35:21.127Z,14.47
2019-05-22T02:40:25.565Z,12.88
2019-05-22T02:45:29.316Z,13.68
2019-05-22T02:50:33.391Z,12.50
2019-05-22T02:55:35.206Z,11.48
2019-05-22T03:00:42.809Z,12.33
2019-05-22T03:05:44.563Z,11.68
2019-05-22T03:10:46.269Z,13.32
2019-05-22T03:15:48.967Z,12.47
2019-05-22T03:20:51.054Z,12.20
2019-05-22T03:25:53.111Z,13.05
2019-05-22T03:30:54.783Z,11.85
2019-05-22T03:36:02.560Z,14.50
2019-05-22T03:41:04.196Z,16.07
2019-05-22T03:46:17.692Z,14.93
2019-05-22T03:51:19.689Z,15.43
2019-05-22T03:56:22.203Z,15.70
2019-05-22T04:01:24.375Z,15.85
2019-05-22T04:06:26.068Z,16.20
2019-05-22T04:11:31.742Z,15.78
2019-05-22T04:16:34.340Z,15.30
2019-05-22T04:21:36.432Z,15.38
2019-05-22T04:26:39.308Z,15.25
2019-05-22T04:31:59.699Z,15.83
2019-05-22T04:37:01.407Z,16.73
2019-05-22T04:42:03.676Z,15.25
2019-05-22T04:47:05.926Z,15.48
2019-05-22T04:52:07.976Z,15.20
2019-05-22T04:57:10.547Z,14.47
2019-05-22T05:02:12.347Z,14.15
2019-05-22T05:07:14.048Z,14.05
2019-05-22T05:12:16.051Z,13.10
2019-05-22T05:17:18.188Z,14.33
2019-05-22T05:22:23.686Z,13.50
2019-05-22T05:27:26.540Z,12.90
2019-05-22T05:32:28.419Z,12.85
2019-05-22T05:37:31.042Z,12.90
2019-05-22T05:42:32.924Z,13.05
2019-05-22T05:47:34.703Z,11.68
2019-05-22T05:52:37.633Z,11.95
2019-05-22T05:58:01.435Z,10.88
2019-05-22T06:03:10.938Z,12.13
2019-05-22T06:08:12.715Z,10.90
2019-05-22T06:13:15.106Z,11.60
2019-05-22T06:18:42.888Z,11.70
2019-05-22T06:23:54.032Z,11.15
2019-05-22T06:28:57.586Z,10.40
2019-05-22T06:33:59.578Z,9.43
2019-05-22T06:39:13.311Z,8.03
2019-05-22T06:44:34.583Z,6.85
2019-05-22T06:49:46.303Z,4.75
2019-05-22T06:54:47.999Z,5.22
2019-05-22T07:00:10.826Z,5.22
2019-05-22T07:04:54.419Z,3.98
2019-05-22T07:09:57.281Z,4.90
2019-05-22T07:15:20.159Z,5.40
2019-05-22T07:20:23.540Z,5.60
2019-05-22T07:25:27.507Z,6.47
2019-05-22T07:30:29.868Z,7.10
2019-05-22T07:35:49.764Z,7.28
2019-05-22T07:40:36.118Z,8.00
2019-05-22T07:45:38.641Z,7.47
2019-05-22T07:50:47.975Z,6.37
2019-05-22T07:55:48.115Z,6.35
2019-05-22T08:00:58.665Z,5.83
2019-05-22T08:06:00.880Z,5.22
2019-05-22T08:11:04.146Z,5.40
2019-05-22T08:16:06.297Z,5.33
2019-05-22T08:21:08.208Z,5.37
2019-05-22T08:26:13.360Z,6.17
2019-05-22T08:31:16.767Z,6.33
2019-05-22T08:36:18.420Z,6.05
2019-05-22T08:41:23.713Z,5.83
2019-05-22T08:46:25.412Z,5.50
2019-05-22T08:51:27.150Z,5.05
2019-05-22T08:56:31.522Z,5.05
2019-05-22T09:01:33.300Z,5.30
2019-05-22T09:06:35.102Z,4.72
2019-05-22T09:11:39.217Z,5.15
2019-05-22T09:16:42.153Z,4.87
2019-05-22T09:21:44.049Z,4.92
2019-05-22T09:26:45.843Z,4.72
2019-05-22T09:31:47.595Z,4.90
2019-05-22T09:36:49.716Z,5.67
2019-05-22T09:41:51.507Z,5.92
2019-05-22T09:46:53.821Z,6.05
2019-05-22T09:51:56.239Z,7.72
2019-05-22T09:56:58.013Z,8.40
2019-05-22T10:02:00.172Z,9.30
2019-05-22T10:07:02.056Z,10.75
2019-05-22T10:12:05.248Z,11.50
2019-05-22T10:17:08.313Z,9.90
2019-05-22T10:22:11.377Z,10.38
2019-05-22T10:27:13.807Z,10.68
2019-05-22T10:32:16.305Z,10.28
2019-05-22T10:37:19.195Z,9.78
2019-05-22T10:42:23.644Z,7.67
2019-05-22T10:47:25.587Z,7.90
2019-05-22T10:52:27.460Z,10.23
2019-05-22T10:57:29.323Z,10.85
2019-05-22T11:02:31.218Z,12.03
2019-05-22T11:07:34.193Z,12.07
2019-05-22T11:12:36.063Z,13.28
2019-05-22T11:17:38.472Z,13.70
2019-05-22T11:22:40.500Z,13.05
2019-05-22T11:27:42.607Z,15.08
2019-05-22T11:32:44.934Z,13.85
2019-05-22T11:37:47.159Z,13.13
2019-05-22T11:42:50.176Z,12.05
2019-05-22T11:47:54.732Z,10.88
2019-05-22T11:52:56.505Z,12.30
2019-05-22T11:57:58.336Z,11.63
2019-05-22T12:03:00.636Z,11.90
2019-05-22T12:08:03.412Z,12.65
2019-05-22T12:13:05.456Z,13.10
2019-05-22T12:18:07.688Z,11.85
2019-05-22T12:23:09.863Z,10.95
2019-05-22T12:28:12.650Z,10.48
2019-05-22T12:33:14.950Z,10.13
2019-05-22T12:38:16.641Z,9.40
2019-05-22T12:43:19.159Z,10.40
2019-05-22T12:48:21.185Z,12.10
2019-05-22T12:53:23.392Z,10.48
2019-05-22T12:58:27.312Z,10.50
2019-05-22T13:03:29.833Z,9.35
2019-05-22T13:08:31.949Z,11.33
2019-05-22T13:13:33.603Z,12.13
2019-05-22T13:18:35.527Z,11.48
2019-05-22T13:23:38.782Z,12.30
2019-05-22T13:28:46.213Z,11.33
2019-05-22T13:33:49.673Z,11.78
2019-05-22T13:38:51.900Z,11.05
2019-05-22T13:43:53.898Z,11.38
2019-05-22T13:48:55.931Z,11.68
2019-05-22T13:53:58.167Z,11.95
2019-05-22T13:59:01.183Z,12.23
2019-05-22T14:04:03.049Z,11.65
2019-05-22T14:09:07.563Z,11.38
2019-05-22T14:14:09.621Z,11.25
2019-05-22T14:19:11.423Z,11.10
2019-05-22T14:24:17.584Z,10.50
2019-05-22T14:29:19.312Z,12.15
2019-05-22T14:34:21.345Z,12.25
2019-05-22T14:39:24.751Z,11.97
2019-05-22T14:44:26.520Z,11.40
2019-05-22T14:49:28.157Z,11.50
2019-05-22T14:54:30.448Z,10.72
2019-05-22T14:59:33.362Z,11.10
2019-05-22T15:04:35.594Z,10.90
2019-05-22T15:09:37.425Z,9.53
2019-05-22T15:14:39.536Z,9.13
2019-05-22T15:19:41.297Z,9.85
2019-05-22T15:24:43.045Z,10.00
2019-05-22T15:29:45.794Z,9.35
2019-05-22T15:34:47.649Z,9.08
2019-05-22T15:39:49.602Z,8.45
2019-05-22T15:44:52.113Z,9.35
2019-05-22T15:49:55.068Z,9.50
2019-05-22T15:54:57.268Z,9.53
2019-05-22T15:59:59.961Z,9.65
2019-05-22T16:05:01.635Z,9.60
2019-05-22T16:10:05.323Z,9.30
2019-05-22T16:15:09.472Z,8.78
2019-05-22T16:20:11.777Z,10.10
2019-05-22T16:25:14.657Z,8.80
2019-05-22T16:30:17.507Z,9.85
2019-05-22T16:35:19.178Z,8.98
2019-05-22T16:40:21.679Z,9.00
2019-05-22T16:45:24.086Z,9.40
2019-05-22T16:50:27.494Z,9.13
2019-05-22T16:55:31.544Z,8.78
2019-05-22T17:00:34.693Z,8.90
2019-05-22T17:05:37.546Z,8.58
2019-05-22T17:10:39.464Z,9.38
2019-05-22T17:15:41.841Z,8.45
2019-05-22T17:20:44.334Z,8.95
2019-05-22T17:25:46.419Z,8.53
2019-05-22T17:30:48.468Z,8.75
2019-05-22T17:35:50.656Z,8.58
2019-05-22T17:40:52.839Z,8.95
2019-05-22T17:45:54.619Z,8.85
2019-05-22T17:50:57.277Z,8.35
2019-05-22T17:56:00.817Z,8.48
2019-05-22T18:01:03.940Z,9.33
2019-05-22T18:06:05.645Z,8.83
2019-05-22T18:11:08.356Z,8.70
2019-05-22T18:16:10.667Z,9.40
2019-05-22T18:21:12.712Z,8.53
2019-05-22T18:26:14.663Z,9.78
2019-05-22T18:31:16.407Z,9.28
2019-05-22T18:36:18.068Z,9.50
2019-05-22T18:41:20.192Z,9.85
2019-05-22T18:46:22.507Z,8.83
2019-05-22T18:51:24.217Z,9.60
2019-05-22T18:56:36.685Z,9.03
2019-05-22T19:01:38.336Z,8.68
2019-05-22T19:06:40.416Z,8.28
2019-05-22T19:11:42.350Z,10.00
2019-05-22T19:16:44.482Z,9.65
2019-05-22T19:21:46.220Z,9.25
2019-05-22T19:26:48.021Z,9.98
2019-05-22T19:31:49.755Z,10.82
2019-05-22T19:36:52.888Z,10.03
2019-05-22T19:42:02.724Z,11.43
2019-05-22T19:46:58.600Z,11.30
2019-05-22T19:52:00.535Z,10.55
2019-05-22T19:57:02.197Z,10.70
2019-05-22T20:02:05.054Z,9.88
2019-05-22T20:07:07.714Z,9.65
2019-05-22T20:12:09.483Z,10.20
2019-05-22T20:17:11.961Z,10.63
2019-05-22T20:22:15.229Z,10.35
2019-05-22T20:27:17.543Z,9.75
2019-05-22T20:32:20.063Z,10.48
2019-05-22T20:37:22.704Z,9.95
2019-05-22T20:42:24.930Z,11.25
2019-05-22T20:47:27.738Z,10.43
2019-05-22T20:52:30.202Z,11.57
2019-05-22T20:57:33.345Z,10.75
2019-05-22T21:02:38.141Z,12.68
2019-05-22T21:07:42.495Z,11.25
2019-05-22T21:12:45.850Z,12.37
2019-05-22T21:17:48.676Z,11.63
2019-05-22T21:22:51.441Z,12.00
2019-05-22T21:27:53.368Z,12.15
2019-05-22T21:33:26.438Z,12.15
2019-05-22T21:38:42.059Z,12.78
2019-05-22T21:43:44.704Z,11.85
2019-05-22T21:49:04.888Z,13.58
2019-05-22T21:54:13.719Z,13.45
2019-05-22T21:59:17.398Z,13.48
2019-05-22T22:04:20.405Z,13.55
2019-05-22T22:09:23.178Z,13.18
2019-05-22T22:14:25.257Z,11.75
2019-05-22T22:19:29.343Z,12.58
2019-05-22T22:24:31.447Z,13.30
2019-05-22T22:29:33.312Z,12.18
2019-05-22T22:40:38.356Z,12.70
2019-05-22T22:45:43.653Z,13.48
2019-05-22T22:50:47.640Z,13.70
2019-05-22T23:02:20.758Z,14.07
2019-05-22T23:07:24.708Z,13.55
2019-05-22T23:12:27.535Z,14.10
2019-05-22T23:17:36.626Z,13.32
2019-05-22T23:22:41.170Z,12.85
2019-05-22T23:27:42.851Z,14.60
2019-05-22T23:32:45.301Z,13.62
2019-05-22T23:37:47.874Z,14.43
2019-05-22T23:42:49.707Z,14.55
2019-05-22T23:47:58.299Z,15.00
2019-05-22T23:53:00.735Z,14.43
2019-05-22T23:58:03.777Z,14.25
